Time;durP1;ratioP1;P1;durP2;ratioP2;P2;SDS_P1;SDS_P2;PMS_P1;PMS_P2;Temp;Humidity;BMP_temperature;BMP_pressure;BME280_temperature;BME280_humidity;BME280_pressure;Samples;Min_cycle;Max_cycle;Signal;HPM_P1;HPM_P2
2022/11/30 00:00:29;;;;;;;3.28;2.80;;;17.70;68.70;;;;;;5013027;28;20180;-70
2022/11/30 00:02:56;;;;;;;3.05;2.33;;;17.70;68.70;;;;;;5012885;28;20219;-70
2022/11/30 00:05:23;;;;;;;2.30;2.10;;;17.70;68.70;;;;;;5011815;28;20187;-70
2022/11/30 00:07:49;;;;;;;2.50;2.30;;;17.70;68.70;;;;;;5010655;28;20216;-70
2022/11/30 00:10:16;;;;;;;2.08;1.80;;;17.70;68.80;;;;;;4994990;28;20188;-70
2022/11/30 00:12:42;;;;;;;2.20;1.88;;;17.70;68.70;;;;;;4995386;28;20565;-70
2022/11/30 00:15:13;;;;;;;2.50;2.00;;;17.70;68.70;;;;;;5011317;28;20569;-69
2022/11/30 00:17:40;;;;;;;2.08;1.75;;;17.70;68.70;;;;;;5012525;28;20306;-70
2022/11/30 00:20:07;;;;;;;2.22;1.95;;;17.70;68.70;;;;;;5011495;28;20652;-70
2022/11/30 00:22:33;;;;;;;2.15;1.95;;;17.60;68.50;;;;;;5011217;28;20219;-70
2022/11/30 00:25:01;;;;;;;2.83;2.17;;;17.70;68.70;;;;;;5012406;28;20180;-70
2022/11/30 00:27:28;;;;;;;2.92;2.05;;;17.70;68.70;;;;;;5011317;28;20525;-70
2022/11/30 00:29:54;;;;;;;1.95;1.70;;;17.60;68.50;;;;;;5011307;28;20188;-70
2022/11/30 00:32:20;;;;;;;2.17;1.88;;;17.70;68.60;;;;;;5012650;28;20172;-70
2022/11/30 00:34:46;;;;;;;2.33;1.98;;;17.70;68.60;;;;;;5011043;28;20187;-70
2022/11/30 00:37:12;;;;;;;2.42;2.05;;;17.60;68.40;;;;;;5011218;28;20180;-70
2022/11/30 00:39:37;;;;;;;2.90;1.85;;;17.70;68.70;;;;;;5011205;28;20277;-70
2022/11/30 00:42:03;;;;;;;2.33;2.13;;;17.60;68.50;;;;;;5027758;28;20191;-70
2022/11/30 00:44:29;;;;;;;2.35;1.75;;;17.70;68.70;;;;;;5010930;28;20687;-71
2022/11/30 00:46:55;;;;;;;2.90;2.05;;;17.70;68.60;;;;;;4994874;28;20196;-70
2022/11/30 00:49:20;;;;;;;2.50;2.05;;;17.70;68.60;;;;;;5011046;28;20200;-70
2022/11/30 00:51:46;;;;;;;1.67;1.58;;;17.70;68.70;;;;;;5011461;28;20188;-70
2022/11/30 00:54:12;;;;;;;2.13;1.92;;;17.70;68.60;;;;;;5011125;28;20188;-71
2022/11/30 00:56:38;;;;;;;2.30;2.10;;;17.70;68.60;;;;;;5011057;28;20188;-70
2022/11/30 00:59:04;;;;;;;3.03;1.98;;;17.60;68.50;;;;;;5010948;28;20262;-70
2022/11/30 01:01:30;;;;;;;1.98;1.77;;;17.70;68.60;;;;;;5012613;28;20230;-70
2022/11/30 01:03:57;;;;;;;2.10;1.90;;;17.70;68.60;;;;;;5031092;28;20216;-68
2022/11/30 01:06:24;;;;;;;2.08;1.75;;;17.70;68.60;;;;;;4998755;28;20367;-70
2022/11/30 01:09:04;;;;;;;1.60;1.38;;;17.60;68.50;;;;;;5069609;28;20566;-69
2022/11/30 01:11:31;;;;;;;2.40;1.75;;;17.60;68.40;;;;;;5065339;28;20186;-69
2022/11/30 01:13:58;;;;;;;1.88;1.65;;;17.70;68.60;;;;;;5048485;28;20745;-69
2022/11/30 01:16:30;;;;;;;2.35;1.90;;;17.60;68.40;;;;;;5048625;28;20187;-69
2022/11/30 01:18:56;;;;;;;2.15;1.58;;;17.70;68.50;;;;;;5048309;28;20261;-69
2022/11/30 01:21:25;;;;;;;1.52;1.42;;;17.70;68.60;;;;;;5048180;28;20638;-69
2022/11/30 01:23:52;;;;;;;2.38;2.05;;;17.60;68.40;;;;;;5048552;28;20183;-69
2022/11/30 01:26:19;;;;;;;1.58;1.48;;;17.70;68.50;;;;;;5047997;28;20179;-69
2022/11/30 01:28:50;;;;;;;2.38;1.70;;;17.70;68.50;;;;;;5048396;28;20575;-69
2022/11/30 01:31:17;;;;;;;1.80;1.40;;;17.60;68.50;;;;;;5031563;28;20631;-69
2022/11/30 01:33:42;;;;;;;1.83;1.58;;;17.60;68.40;;;;;;5048195;28;20171;-69
2022/11/30 01:36:13;;;;;;;2.83;1.73;;;17.60;68.40;;;;;;5049036;28;20174;-69
2022/11/30 01:38:43;;;;;;;2.00;1.80;;;17.60;68.40;;;;;;5031379;28;20305;-69
2022/11/30 01:41:13;;;;;;;2.22;1.58;;;17.60;68.30;;;;;;5048323;28;20623;-69
2022/11/30 01:43:52;;;;;;;2.15;1.95;;;17.60;68.40;;;;;;5048191;28;20667;-69
2022/11/30 01:46:40;;;;;;;2.88;1.75;;;17.60;68.40;;;;;;5064368;28;20179;-69
2022/11/30 01:49:09;;;;;;;2.20;1.50;;;17.70;68.60;;;;;;5048071;28;20230;-69
2022/11/30 01:51:51;;;;;;;1.90;1.70;;;17.60;68.30;;;;;;5031541;28;20226;-69
2022/11/30 01:54:25;;;;;;;2.42;1.63;;;17.70;68.50;;;;;;5047297;28;20189;-69
2022/11/30 01:57:04;;;;;;;1.65;1.55;;;17.70;68.40;;;;;;5047964;28;20255;-69
2022/11/30 01:59:30;;;;;;;2.35;1.60;;;17.60;68.30;;;;;;5030996;28;20209;-69
2022/11/30 02:01:56;;;;;;;3.45;1.83;;;17.60;68.40;;;;;;5049047;28;20190;-69
2022/11/30 02:04:36;;;;;;;1.65;1.52;;;17.60;68.40;;;;;;5031173;28;20175;-69
2022/11/30 02:07:06;;;;;;;1.40;1.30;;;17.60;68.40;;;;;;5030779;28;20246;-69
2022/11/30 02:09:41;;;;;;;1.73;1.60;;;17.60;68.40;;;;;;5047180;28;20294;-69
2022/11/30 02:12:21;;;;;;;2.70;1.60;;;17.60;68.40;;;;;;5047508;28;20187;-69
2022/11/30 02:14:57;;;;;;;1.42;1.33;;;17.60;68.40;;;;;;5048390;28;20175;-69
2022/11/30 02:17:50;;;;;;;2.28;1.60;;;17.60;68.30;;;;;;5047402;28;20236;-69
2022/11/30 02:20:40;;;;;;;1.63;1.48;;;17.60;68.30;;;;;;5035238;28;20187;-69
2022/11/30 02:23:58;;;;;;;1.50;1.40;;;17.60;68.30;;;;;;5033935;28;20198;-69
2022/11/30 02:26:49;;;;;;;1.77;1.60;;;17.60;68.40;;;;;;4960754;28;20197;-69
2022/11/30 02:29:23;;;;;;;1.80;1.70;;;17.60;68.30;;;;;;5031830;28;20227;-69
2022/11/30 02:32:09;;;;;;;1.77;1.52;;;17.60;68.30;;;;;;5034382;28;20195;-69
2022/11/30 02:34:39;;;;;;;1.60;1.50;;;17.60;68.30;;;;;;5017118;28;20189;-69
2022/11/30 02:37:08;;;;;;;1.40;1.30;;;17.60;68.20;;;;;;5033769;28;20588;-69
2022/11/30 02:39:34;;;;;;;1.65;1.55;;;17.60;68.30;;;;;;5017125;28;20290;-69
2022/11/30 02:42:00;;;;;;;1.58;1.48;;;17.60;68.30;;;;;;5034859;28;20183;-69
2022/11/30 02:44:28;;;;;;;1.92;1.50;;;17.60;68.30;;;;;;5016857;28;20233;-69
2022/11/30 02:47:06;;;;;;;1.58;1.40;;;17.60;68.40;;;;;;5033440;28;20712;-69
2022/11/30 02:49:57;;;;;;;1.60;1.50;;;17.60;68.30;;;;;;5016828;28;20694;-69
2022/11/30 02:52:28;;;;;;;1.55;1.38;;;17.60;68.30;;;;;;5034597;28;20179;-69
2022/11/30 02:55:08;;;;;;;1.35;1.25;;;17.60;68.30;;;;;;5033120;28;20176;-69
2022/11/30 02:57:34;;;;;;;2.20;1.55;;;17.60;68.30;;;;;;5034452;28;20214;-68
2022/11/30 03:00:05;;;;;;;1.25;1.15;;;17.60;68.30;;;;;;5034507;28;20183;-70
2022/11/30 03:02:32;;;;;;;1.35;1.25;;;17.60;68.30;;;;;;5017015;28;20191;-70
2022/11/30 03:04:57;;;;;;;2.03;1.50;;;17.60;68.30;;;;;;5033269;28;20199;-69
2022/11/30 03:07:23;;;;;;;1.85;1.55;;;17.60;68.30;;;;;;5034177;28;20207;-69
2022/11/30 03:09:50;;;;;;;1.48;1.30;;;17.60;68.30;;;;;;5037541;22;20232;-68
2022/11/30 03:12:16;;;;;;;2.05;1.70;;;17.60;68.20;;;;;;4996931;28;20184;-68
2022/11/30 03:14:42;;;;;;;1.60;1.50;;;17.60;68.30;;;;;;5012969;28;20188;-67
2022/11/30 03:17:07;;;;;;;1.88;1.45;;;17.60;68.20;;;;;;5013030;28;20180;-68
2022/11/30 03:19:33;;;;;;;1.92;1.75;;;17.60;68.30;;;;;;5009764;28;20209;-69
2022/11/30 03:22:00;;;;;;;1.85;1.60;;;17.60;68.30;;;;;;4977213;28;20611;-68
2022/11/30 03:24:26;;;;;;;1.63;1.52;;;17.60;68.30;;;;;;4977363;28;20291;-67
2022/11/30 03:26:51;;;;;;;1.63;1.52;;;17.60;68.30;;;;;;4975719;28;20189;-67
2022/11/30 03:29:17;;;;;;;1.60;1.50;;;17.60;68.30;;;;;;4993473;28;20204;-68
2022/11/30 03:31:44;;;;;;;1.73;1.63;;;17.60;68.20;;;;;;4992702;28;20227;-67
2022/11/30 03:34:09;;;;;;;1.80;1.70;;;17.60;68.20;;;;;;4977423;28;20185;-67
2022/11/30 03:36:35;;;;;;;1.65;1.55;;;17.60;68.20;;;;;;4993089;28;20776;-68
2022/11/30 03:39:02;;;;;;;3.45;1.70;;;17.60;68.20;;;;;;4977102;28;20205;-68
2022/11/30 03:41:28;;;;;;;1.80;1.70;;;17.60;68.20;;;;;;5009447;28;20212;-68
2022/11/30 03:43:54;;;;;;;1.92;1.70;;;17.60;68.10;;;;;;4987963;28;20657;-68
2022/11/30 03:46:19;;;;;;;2.22;1.90;;;17.60;68.20;;;;;;4976815;28;20249;-68
2022/11/30 03:48:45;;;;;;;2.53;1.88;;;17.60;68.20;;;;;;4992783;28;20225;-68
2022/11/30 03:51:12;;;;;;;2.20;1.80;;;17.60;68.20;;;;;;4993237;28;20200;-68
2022/11/30 03:53:38;;;;;;;1.77;1.60;;;17.60;68.20;;;;;;4976667;28;20185;-68
2022/11/30 03:56:08;;;;;;;2.35;2.08;;;17.60;68.10;;;;;;4993014;28;20209;-68
2022/11/30 03:58:34;;;;;;;2.00;1.80;;;17.60;68.20;;;;;;4976563;28;20263;-68
2022/11/30 04:01:14;;;;;;;1.75;1.58;;;17.60;68.30;;;;;;4992802;28;20248;-68
2022/11/30 04:03:40;;;;;;;2.00;1.77;;;17.60;68.20;;;;;;4994155;28;20172;-68
2022/11/30 04:06:09;;;;;;;1.92;1.73;;;17.60;68.20;;;;;;4992357;28;20567;-68
2022/11/30 04:08:36;;;;;;;2.13;1.92;;;17.60;68.20;;;;;;4992118;28;20223;-68
2022/11/30 04:11:04;;;;;;;1.88;1.77;;;17.60;68.20;;;;;;4992906;28;20165;-68
2022/11/30 04:13:34;;;;;;;2.22;1.83;;;17.60;68.10;;;;;;4992477;28;20570;-68
2022/11/30 04:16:01;;;;;;;2.10;1.90;;;17.60;68.10;;;;;;4993420;28;20207;-68
2022/11/30 04:18:29;;;;;;;2.20;2.00;;;17.60;68.20;;;;;;4976172;28;20216;-68
2022/11/30 04:20:57;;;;;;;2.05;1.80;;;17.60;68.20;;;;;;4991895;28;20187;-68
2022/11/30 04:23:25;;;;;;;2.60;2.00;;;17.60;68.10;;;;;;4992724;28;20200;-68
2022/11/30 04:25:51;;;;;;;2.25;2.05;;;17.60;68.10;;;;;;4975846;28;20193;-68
2022/11/30 04:28:18;;;;;;;2.20;2.00;;;17.60;68.10;;;;;;4975957;28;20231;-68
2022/11/30 04:30:46;;;;;;;1.88;1.75;;;17.60;68.10;;;;;;4992647;28;20276;-68
2022/11/30 04:33:14;;;;;;;2.10;1.85;;;17.60;68.10;;;;;;5006758;28;20729;-68
2022/11/30 04:35:45;;;;;;;2.22;1.98;;;17.60;68.20;;;;;;5011573;28;20180;-68
2022/11/30 04:38:11;;;;;;;1.67;1.58;;;17.60;68.20;;;;;;5012840;28;20259;-68
2022/11/30 04:40:41;;;;;;;2.33;2.00;;;17.60;68.20;;;;;;4995652;28;20298;-68
2022/11/30 04:43:08;;;;;;;2.17;1.98;;;17.60;68.20;;;;;;5011391;28;20196;-68
2022/11/30 04:45:34;;;;;;;2.08;1.88;;;17.60;68.20;;;;;;5012718;28;20179;-67
2022/11/30 04:48:01;;;;;;;2.28;2.08;;;17.60;68.20;;;;;;5011641;28;20250;-68
2022/11/30 04:50:26;;;;;;;2.47;2.20;;;17.60;68.10;;;;;;5011552;28;20279;-68
2022/11/30 04:52:52;;;;;;;2.38;2.17;;;17.60;68.10;;;;;;5012790;28;20200;-68
2022/11/30 04:55:18;;;;;;;3.53;2.30;;;17.60;68.10;;;;;;4994888;28;20215;-68
2022/11/30 04:57:45;;;;;;;2.50;2.30;;;17.60;68.10;;;;;;5011724;28;20187;-68
2022/11/30 05:00:14;;;;;;;2.08;1.92;;;17.60;68.10;;;;;;5012648;28;20210;-68
2022/11/30 05:02:39;;;;;;;2.92;2.50;;;17.60;68.10;;;;;;5011355;28;20184;-68
2022/11/30 05:05:06;;;;;;;2.42;2.20;;;17.60;68.10;;;;;;4995046;28;20242;-68
2022/11/30 05:07:32;;;;;;;3.08;2.40;;;17.60;68.00;;;;;;4995179;28;20208;-68
2022/11/30 05:09:57;;;;;;;2.90;2.60;;;17.60;68.10;;;;;;5011473;28;20219;-68
2022/11/30 05:12:23;;;;;;;2.55;2.33;;;17.60;68.10;;;;;;5011394;28;20210;-68
2022/11/30 05:14:49;;;;;;;3.38;2.55;;;17.60;68.00;;;;;;5011155;28;20187;-68
2022/11/30 05:17:15;;;;;;;2.88;2.42;;;17.60;68.10;;;;;;5011593;28;20188;-68
2022/11/30 05:19:41;;;;;;;3.20;2.90;;;17.60;68.10;;;;;;5011600;28;20200;-67
2022/11/30 05:22:06;;;;;;;2.63;2.42;;;17.60;68.00;;;;;;5010936;28;20656;-67
2022/11/30 05:24:32;;;;;;;2.60;2.40;;;17.60;68.00;;;;;;5027775;28;20222;-68
2022/11/30 05:26:58;;;;;;;2.58;2.38;;;17.60;68.00;;;;;;5027630;28;20196;-67
2022/11/30 05:29:24;;;;;;;2.78;2.50;;;17.60;68.00;;;;;;4994764;28;20227;-67
2022/11/30 05:31:50;;;;;;;2.53;2.33;;;17.60;68.00;;;;;;4994764;28;20635;-68
2022/11/30 05:34:16;;;;;;;5.15;2.95;;;17.60;68.10;;;;;;5011117;28;20176;-67
2022/11/30 05:36:41;;;;;;;3.40;2.55;;;17.60;68.00;;;;;;5010995;28;20242;-68
2022/11/30 05:39:07;;;;;;;2.97;2.70;;;17.60;68.00;;;;;;5011274;28;20208;-68
2022/11/30 05:41:33;;;;;;;3.20;2.72;;;17.60;68.10;;;;;;5011214;28;20185;-67
2022/11/30 05:43:59;;;;;;;3.25;2.83;;;17.60;68.10;;;;;;4994994;28;20199;-67
2022/11/30 05:46:24;;;;;;;3.17;2.88;;;17.60;68.10;;;;;;4994435;28;20192;-67
2022/11/30 05:48:50;;;;;;;3.47;2.85;;;17.60;68.00;;;;;;4977044;28;20746;-67
2022/11/30 05:51:18;;;;;;;5.13;3.40;;;17.60;68.00;;;;;;4978573;28;20177;-67
2022/11/30 05:53:45;;;;;;;3.80;3.30;;;17.60;68.10;;;;;;4975634;28;20217;-67
2022/11/30 05:56:15;;;;;;;3.20;2.90;;;17.60;68.00;;;;;;4994727;28;20188;-67
2022/11/30 05:58:41;;;;;;;3.95;3.55;;;17.60;68.00;;;;;;4995248;28;20200;-68
2022/11/30 06:01:16;;;;;;;4.53;3.60;;;17.60;68.00;;;;;;5011285;28;20623;-67
2022/11/30 06:03:42;;;;;;;3.80;3.30;;;17.60;68.00;;;;;;4978636;28;20227;-68
2022/11/30 06:06:07;;;;;;;5.35;3.83;;;17.60;68.00;;;;;;4978502;28;20231;-68
2022/11/30 06:08:33;;;;;;;4.90;3.97;;;17.60;68.00;;;;;;4994835;28;20228;-68
2022/11/30 06:11:00;;;;;;;4.57;3.88;;;17.60;68.00;;;;;;4996466;28;20180;-68
2022/11/30 06:13:26;;;;;;;4.68;4.18;;;17.60;68.00;;;;;;4958496;28;20178;-70
2022/11/30 06:15:52;;;;;;;4.95;3.67;;;17.50;67.90;;;;;;4973986;28;20212;-68
2022/11/30 06:18:17;;;;;;;3.97;3.40;;;17.60;67.90;;;;;;4976060;28;20209;-68
2022/11/30 06:20:43;;;;;;;4.43;4.03;;;17.60;68.00;;;;;;4974501;28;20194;-68
2022/11/30 06:23:09;;;;;;;3.90;3.55;;;17.50;67.90;;;;;;4958614;28;20257;-68
2022/11/30 06:25:35;;;;;;;4.50;3.90;;;17.60;68.00;;;;;;4974349;28;20190;-69
2022/11/30 06:28:00;;;;;;;4.57;3.80;;;17.60;68.10;;;;;;4974654;28;20236;-68
2022/11/30 06:30:26;;;;;;;4.50;4.10;;;17.50;67.90;;;;;;4974793;28;20185;-68
2022/11/30 06:32:52;;;;;;;4.10;3.42;;;17.60;68.10;;;;;;4958506;28;20567;-68
2022/11/30 06:35:18;;;;;;;5.35;4.15;;;17.60;68.00;;;;;;4974357;28;20569;-68
2022/11/30 06:37:44;;;;;;;4.15;3.65;;;17.50;67.90;;;;;;4958539;28;20249;-68
2022/11/30 06:40:12;;;;;;;4.05;3.65;;;17.50;68.00;;;;;;4958582;28;20288;-68
2022/11/30 06:42:38;;;;;;;4.13;3.70;;;17.50;67.90;;;;;;4974535;28;20241;-70
2022/11/30 06:45:05;;;;;;;4.80;3.95;;;17.60;68.00;;;;;;4958086;28;20194;-69
2022/11/30 06:47:31;;;;;;;4.40;3.90;;;17.60;68.00;;;;;;4974284;28;20621;-68
2022/11/30 06:49:57;;;;;;;4.57;4.13;;;17.50;67.90;;;;;;4974171;28;20219;-68
2022/11/30 06:52:23;;;;;;;3.92;3.53;;;17.50;67.90;;;;;;4975604;28;20178;-68
2022/11/30 06:54:49;;;;;;;4.53;4.00;;;17.60;68.00;;;;;;4973977;28;20196;-68
2022/11/30 06:57:15;;;;;;;5.40;4.25;;;17.60;68.00;;;;;;4957917;28;20273;-68
2022/11/30 06:59:43;;;;;;;5.63;4.50;;;17.50;67.90;;;;;;4974085;28;20288;-70
2022/11/30 07:02:12;;;;;;;4.45;4.00;;;17.50;67.90;;;;;;4974246;28;20196;-68
2022/11/30 07:04:38;;;;;;;4.90;4.22;;;17.60;67.90;;;;;;4956289;28;20305;-68
2022/11/30 07:07:06;;;;;;;4.72;4.00;;;17.50;67.80;;;;;;4973109;28;20189;-68
2022/11/30 07:09:33;;;;;;;3.92;3.50;;;17.60;68.00;;;;;;4956981;28;20241;-68
2022/11/30 07:12:00;;;;;;;4.30;3.78;;;17.50;67.90;;;;;;4957245;28;20223;-68
2022/11/30 07:14:26;;;;;;;4.30;3.90;;;17.60;68.00;;;;;;4975000;28;20272;-68
2022/11/30 07:16:52;;;;;;;4.10;3.45;;;17.50;67.80;;;;;;4973499;28;20192;-68
2022/11/30 07:19:18;;;;;;;4.07;3.67;;;17.50;67.90;;;;;;4973786;28;20603;-68
2022/11/30 07:21:44;;;;;;;4.30;3.90;;;17.50;67.90;;;;;;4974892;28;20184;-71
2022/11/30 07:26:58;;;;;;;4.50;3.67;;;17.50;67.90;;;;;;4976953;28;20186;-68
2022/11/30 07:29:24;;;;;;;5.50;3.83;;;17.50;67.90;;;;;;4992972;28;20300;-68
2022/11/30 07:31:51;;;;;;;4.05;3.63;;;17.50;67.90;;;;;;4994122;28;20619;-68
2022/11/30 07:34:17;;;;;;;3.65;3.35;;;17.50;67.90;;;;;;4976608;28;20564;-68
2022/11/30 07:36:43;;;;;;;4.32;3.83;;;17.60;68.00;;;;;;4992646;28;20185;-69
2022/11/30 07:39:10;;;;;;;5.25;4.38;;;17.50;67.80;;;;;;4992905;28;20215;-68
2022/11/30 07:41:37;;;;;;;4.57;4.18;;;17.50;67.90;;;;;;4992688;28;20211;-68
2022/11/30 07:44:04;;;;;;;4.72;4.25;;;17.50;67.80;;;;;;4992778;28;20188;-68
2022/11/30 07:46:32;;;;;;;4.82;4.32;;;17.50;67.80;;;;;;4992344;28;20660;-68
2022/11/30 07:48:58;;;;;;;4.43;4.03;;;17.50;67.80;;;;;;4992624;28;20224;-68
2022/11/30 07:51:24;;;;;;;4.53;3.75;;;17.50;67.80;;;;;;4969187;28;20184;-68
2022/11/30 07:53:50;;;;;;;5.25;3.80;;;17.50;67.90;;;;;;4974338;28;20181;-68
2022/11/30 07:56:20;;;;;;;4.40;4.00;;;17.50;67.80;;;;;;4974320;28;20178;-68
2022/11/30 07:58:47;;;;;;;5.13;3.88;;;17.50;67.80;;;;;;4991497;28;20320;-69
2022/11/30 08:01:16;;;;;;;4.40;3.75;;;17.50;67.80;;;;;;4992519;28;20196;-68
2022/11/30 08:03:42;;;;;;;3.90;3.53;;;17.50;67.80;;;;;;4982039;28;20192;-68
2022/11/30 08:06:14;;;;;;;5.32;3.90;;;17.50;67.90;;;;;;4975913;28;20196;-68
2022/11/30 08:08:43;;;;;;;4.10;3.67;;;17.50;67.80;;;;;;4975689;28;20225;-68
2022/11/30 08:11:13;;;;;;;4.25;3.85;;;17.50;67.90;;;;;;4993410;28;20187;-68
2022/11/30 08:13:39;;;;;;;3.88;3.55;;;17.50;67.80;;;;;;4992222;28;20184;-68
2022/11/30 08:16:10;;;;;;;4.65;3.90;;;17.50;67.80;;;;;;4992115;28;20200;-68
2022/11/30 08:18:35;;;;;;;4.03;3.28;;;17.60;67.90;;;;;;4991778;28;20205;-68
2022/11/30 08:21:04;;;;;;;4.30;3.88;;;17.60;68.00;;;;;;4993168;28;20195;-68
2022/11/30 08:23:34;;;;;;;4.18;3.58;;;17.50;67.80;;;;;;4992059;28;20200;-68
2022/11/30 08:26:10;;;;;;;4.25;3.75;;;17.50;67.80;;;;;;4992061;28;20551;-68
2022/11/30 08:28:37;;;;;;;4.35;3.40;;;17.50;67.80;;;;;;4975635;28;20220;-68
2022/11/30 08:31:13;;;;;;;4.78;4.20;;;17.50;67.80;;;;;;4975586;28;20189;-68
2022/11/30 08:33:39;;;;;;;4.72;4.22;;;17.50;67.80;;;;;;4993129;28;20259;-68
2022/11/30 08:36:09;;;;;;;4.22;3.83;;;17.50;67.80;;;;;;4975354;28;20251;-68
2022/11/30 08:38:35;;;;;;;4.10;3.70;;;17.50;67.80;;;;;;4992929;28;20644;-68
2022/11/30 08:41:02;;;;;;;4.57;3.92;;;17.50;67.80;;;;;;4991767;28;20193;-68
2022/11/30 08:43:28;;;;;;;4.18;3.70;;;17.50;67.80;;;;;;4991839;28;20189;-69
2022/11/30 08:45:54;;;;;;;5.00;4.03;;;17.50;67.80;;;;;;4975237;28;20195;-68
2022/11/30 08:48:20;;;;;;;4.10;3.70;;;17.50;67.80;;;;;;4975196;28;20680;-68
2022/11/30 08:50:45;;;;;;;3.60;3.30;;;17.50;67.80;;;;;;4991612;28;20184;-68
2022/11/30 08:53:11;;;;;;;5.18;3.83;;;17.60;67.90;;;;;;4991481;28;20180;-69
2022/11/30 08:55:37;;;;;;;3.90;3.50;;;17.50;67.80;;;;;;4975361;28;20212;-69
2022/11/30 08:58:03;;;;;;;3.88;3.47;;;17.60;67.80;;;;;;4975286;28;20216;-68
2022/11/30 09:00:29;;;;;;;4.18;3.78;;;17.50;67.70;;;;;;4991424;28;20196;-68
2022/11/30 09:02:55;;;;;;;4.88;3.88;;;17.50;67.70;;;;;;4991386;28;20200;-68
2022/11/30 09:05:21;;;;;;;3.67;3.38;;;17.50;67.70;;;;;;4975019;28;20189;-68
2022/11/30 09:07:47;;;;;;;4.40;3.75;;;17.60;67.80;;;;;;4991102;28;20208;-69
2022/11/30 09:10:13;;;;;;;4.00;3.65;;;17.60;67.80;;;;;;5028131;23;20232;-71
2022/11/30 09:12:40;;;;;;;3.40;3.10;;;17.60;67.80;;;;;;5012051;28;20664;-70
2022/11/30 09:15:08;;;;;;;6.03;3.67;;;17.50;67.70;;;;;;5012134;28;20191;-70
2022/11/30 09:17:34;;;;;;;4.75;3.72;;;17.60;67.80;;;;;;5011112;28;20238;-70
2022/11/30 09:20:00;;;;;;;3.50;3.20;;;17.60;67.80;;;;;;5010839;28;20215;-70
2022/11/30 09:22:27;;;;;;;3.42;3.10;;;17.60;67.70;;;;;;5010728;28;20191;-70
2022/11/30 09:24:53;;;;;;;3.17;2.88;;;17.60;67.70;;;;;;5010541;28;20184;-71
2022/11/30 09:27:19;;;;;;;3.30;3.00;;;17.50;67.50;;;;;;5010895;28;20222;-70
2022/11/30 09:29:45;;;;;;;3.47;3.17;;;17.50;67.60;;;;;;5012598;28;20707;-70
2022/11/30 09:32:11;;;;;;;3.08;2.80;;;17.60;67.70;;;;;;5014757;28;20199;-70
2022/11/30 09:34:37;;;;;;;3.45;3.00;;;17.50;67.50;;;;;;5014714;28;20185;-70
2022/11/30 09:37:03;;;;;;;4.90;3.10;;;17.50;67.50;;;;;;5010635;28;20211;-70
2022/11/30 09:39:28;;;;;;;5.13;3.17;;;17.50;67.60;;;;;;5014358;28;20211;-71
2022/11/30 09:42:23;;;;;;;3.42;3.10;;;17.60;67.60;;;;;;5014568;28;20192;-70
2022/11/30 09:44:55;;;;;;;3.10;2.80;;;17.60;67.70;;;;;;4988990;28;20208;-70
2022/11/30 09:47:55;;;;;;;3.38;2.85;;;17.60;67.60;;;;;;5002637;28;20267;-70
2022/11/30 09:50:26;;;;;;;3.35;3.05;;;17.60;67.70;;;;;;4978861;28;20370;-70
2022/11/30 09:52:59;;;;;;;2.97;2.78;;;17.50;67.60;;;;;;4994644;28;20555;-70
2022/11/30 09:55:43;;;;;;;3.58;3.28;;;17.60;67.60;;;;;;4981335;28;20252;-70
2022/11/30 09:58:47;;;;;;;3.28;2.97;;;17.50;67.50;;;;;;4994673;28;20193;-70
2022/11/30 10:01:18;;;;;;;3.47;2.63;;;17.60;67.60;;;;;;4994679;28;20276;-70
2022/11/30 10:03:45;;;;;;;2.88;2.67;;;17.60;67.60;;;;;;5002182;28;20184;-70
2022/11/30 10:06:44;;;;;;;3.22;2.92;;;17.60;67.60;;;;;;5013971;28;20191;-70
2022/11/30 10:09:39;;;;;;;3.50;3.08;;;17.60;67.60;;;;;;4970329;28;20232;-70
2022/11/30 10:12:15;;;;;;;3.58;2.95;;;17.50;67.40;;;;;;5015193;28;20188;-70
2022/11/30 10:15:22;;;;;;;2.70;2.50;;;17.50;67.40;;;;;;5013925;28;20575;-70
2022/11/30 10:18:00;;;;;;;2.80;2.60;;;17.60;67.60;;;;;;4997593;28;20224;-70
2022/11/30 10:20:59;;;;;;;2.88;2.60;;;17.60;67.60;;;;;;5013851;28;20203;-70
2022/11/30 10:23:53;;;;;;;2.40;2.20;;;17.60;67.60;;;;;;4997675;28;20245;-70
2022/11/30 10:26:32;;;;;;;3.25;2.95;;;17.60;67.40;;;;;;5014747;28;20184;-71
2022/11/30 10:29:15;;;;;;;2.85;2.40;;;17.50;67.40;;;;;;5013418;28;20223;-70
2022/11/30 10:31:44;;;;;;;2.90;2.70;;;17.50;67.40;;;;;;5013811;28;20331;-70
2022/11/30 10:34:20;;;;;;;2.70;2.45;;;17.60;67.50;;;;;;5013580;28;20176;-70
2022/11/30 10:37:01;;;;;;;2.95;2.42;;;17.60;67.60;;;;;;5013363;28;20263;-70
2022/11/30 10:39:59;;;;;;;2.75;2.20;;;17.50;67.40;;;;;;4996604;28;20210;-70
2022/11/30 10:42:49;;;;;;;2.85;2.63;;;17.50;67.30;;;;;;5013538;28;20242;-70
2022/11/30 10:45:26;;;;;;;2.63;2.42;;;17.50;67.40;;;;;;5013594;28;20265;-70
2022/11/30 10:48:04;;;;;;;2.55;2.35;;;17.50;67.40;;;;;;5013233;28;20215;-70
2022/11/30 10:50:32;;;;;;;2.60;2.40;;;17.50;67.50;;;;;;5013393;28;20227;-70
2022/11/30 10:52:59;;;;;;;2.65;2.45;;;17.50;67.40;;;;;;5013148;28;20210;-70
2022/11/30 10:55:30;;;;;;;2.50;2.22;;;17.50;67.40;;;;;;5013202;28;20248;-70
2022/11/30 10:58:09;;;;;;;2.20;2.00;;;17.60;67.50;;;;;;5013029;28;20571;-70
2022/11/30 11:00:35;;;;;;;2.60;2.28;;;17.60;67.40;;;;;;5013158;28;20218;-70
2022/11/30 11:03:01;;;;;;;2.60;2.40;;;17.50;67.30;;;;;;5013161;28;20231;-70
2022/11/30 11:05:29;;;;;;;2.70;2.50;;;17.50;67.30;;;;;;5012812;28;20191;-70
2022/11/30 11:07:58;;;;;;;2.50;2.30;;;17.50;67.40;;;;;;5013039;28;20222;-70
2022/11/30 11:10:34;;;;;;;2.70;2.50;;;17.50;67.40;;;;;;5013047;28;20207;-70
2022/11/30 11:13:00;;;;;;;2.83;2.38;;;17.50;67.20;;;;;;5012944;28;20192;-70
2022/11/30 11:15:33;;;;;;;2.65;2.33;;;17.50;67.30;;;;;;5012726;28;20694;-70
2022/11/30 11:18:24;;;;;;;2.58;2.38;;;17.50;67.30;;;;;;5012832;28;20602;-70
2022/11/30 11:21:02;;;;;;;2.85;2.60;;;17.50;67.30;;;;;;5012758;28;20188;-70
2022/11/30 11:23:39;;;;;;;2.70;2.47;;;17.60;67.40;;;;;;5013886;28;20184;-70
2022/11/30 11:26:17;;;;;;;3.05;2.10;;;17.50;67.30;;;;;;4996134;28;20578;-70
2022/11/30 11:28:46;;;;;;;2.30;2.10;;;17.50;67.30;;;;;;5012532;28;20220;-70
2022/11/30 11:31:35;;;;;;;2.10;1.90;;;17.50;67.30;;;;;;5013638;28;20286;-70
2022/11/30 11:34:05;;;;;;;2.25;2.08;;;17.50;67.30;;;;;;5007765;28;20181;-70
2022/11/30 11:36:35;;;;;;;2.35;2.15;;;17.50;67.30;;;;;;4992625;28;20191;-71
2022/11/30 11:39:02;;;;;;;2.35;2.15;;;17.50;67.30;;;;;;4976511;28;20217;-70
2022/11/30 11:41:36;;;;;;;2.40;2.20;;;17.50;67.30;;;;;;4992566;28;20291;-70
2022/11/30 11:44:21;;;;;;;2.10;1.88;;;17.50;67.20;;;;;;4992908;28;20196;-71
2022/11/30 11:47:04;;;;;;;2.42;2.22;;;17.50;67.30;;;;;;4995074;28;20195;-70
2022/11/30 11:49:36;;;;;;;2.00;1.90;;;17.50;67.30;;;;;;4993801;28;20350;-70
2022/11/30 11:52:21;;;;;;;2.22;2.03;;;17.50;67.20;;;;;;4991724;28;20192;-70
2022/11/30 11:54:57;;;;;;;2.30;2.10;;;17.50;67.30;;;;;;4992557;28;20344;-70
2022/11/30 11:57:45;;;;;;;2.40;2.20;;;17.50;67.20;;;;;;4992203;28;20180;-70
2022/11/30 12:00:19;;;;;;;2.60;2.40;;;17.50;67.20;;;;;;5010776;28;20204;-70
2022/11/30 12:03:13;;;;;;;2.20;2.00;;;17.50;67.30;;;;;;5012206;28;20250;-70
2022/11/30 12:05:50;;;;;;;2.00;1.90;;;17.50;67.30;;;;;;5011880;28;20195;-70
2022/11/30 12:08:40;;;;;;;1.92;1.75;;;17.50;67.20;;;;;;5011225;28;20279;-70
2022/11/30 12:11:19;;;;;;;1.80;1.70;;;17.50;67.30;;;;;;5011755;28;20210;-71
2022/11/30 12:13:46;;;;;;;1.80;1.70;;;17.50;67.30;;;;;;5011957;28;20326;-70
2022/11/30 12:16:14;;;;;;;2.08;1.88;;;17.50;67.20;;;;;;5028018;28;20192;-70
2022/11/30 12:19:32;;;;;;;2.38;2.17;;;17.50;67.20;;;;;;5011600;28;20295;-70
2022/11/30 12:22:15;;;;;;;2.00;1.88;;;17.50;67.30;;;;;;4982949;28;20200;-70
2022/11/30 12:25:25;;;;;;;1.67;1.58;;;17.50;67.20;;;;;;5011436;28;20258;-70
2022/11/30 12:28:02;;;;;;;1.90;1.80;;;17.50;67.20;;;;;;5011711;28;20215;-70
2022/11/30 12:30:59;;;;;;;1.80;1.70;;;17.50;67.30;;;;;;5011547;28;20228;-70
2022/11/30 12:33:43;;;;;;;2.08;1.98;;;17.50;67.20;;;;;;5011406;28;20188;-70
2022/11/30 12:36:38;;;;;;;2.30;2.10;;;17.50;67.20;;;;;;5011285;28;20184;-68
2022/11/30 12:39:50;;;;;;;2.00;1.90;;;17.50;67.20;;;;;;5027689;28;20243;-70
2022/11/30 12:42:40;;;;;;;2.17;1.98;;;17.50;67.20;;;;;;5011379;28;20275;-70
2022/11/30 12:45:22;;;;;;;1.90;1.70;;;17.50;67.20;;;;;;5011344;28;20176;-70
2022/11/30 12:48:13;;;;;;;2.15;1.98;;;17.50;67.20;;;;;;5011229;28;20212;-70
2022/11/30 12:51:05;;;;;;;1.67;1.58;;;17.50;67.20;;;;;;5012478;28;20290;-70
2022/11/30 12:53:39;;;;;;;2.40;2.10;;;17.50;67.20;;;;;;5012272;28;20267;-70
2022/11/30 12:56:23;;;;;;;1.80;1.70;;;17.50;67.20;;;;;;5010939;28;20237;-70
2022/11/30 12:59:14;;;;;;;1.80;1.70;;;17.50;67.30;;;;;;5012267;28;20630;-70
2022/11/30 13:01:59;;;;;;;1.77;1.67;;;17.50;67.20;;;;;;5011080;28;20651;-70
2022/11/30 13:04:45;;;;;;;1.73;1.63;;;17.50;67.20;;;;;;5010746;28;20180;-70
2022/11/30 13:07:41;;;;;;;1.85;1.75;;;17.50;67.20;;;;;;5010928;28;20196;-71
2022/11/30 13:10:19;;;;;;;2.42;2.22;;;17.50;67.20;;;;;;5010900;28;20216;-70
2022/11/30 13:12:51;;;;;;;2.03;1.83;;;17.50;67.20;;;;;;5011065;28;20667;-71